Time;durP1;ratioP1;P1;durP2;ratioP2;P2;SDS_P1;SDS_P2;PMS_P1;PMS_P2;Temp;Humidity;BMP_temperature;BMP_pressure;BME280_temperature;BME280_humidity;BME280_pressure;Samples;Min_cycle;Max_cycle;Signal;HPM_P1;HPM_P2
2022/08/25 00:01:50;;;;;;;34.58;25.45;;;;;;;23.35;100.00;101809.16;5064379;28;20032;-66
2022/08/25 00:04:16;;;;;;;29.10;22.63;;;;;;;23.38;100.00;101808.97;5064553;28;20041;-65
2022/08/25 00:06:42;;;;;;;32.75;26.50;;;;;;;23.42;100.00;101799.69;5064738;28;20032;-67
2022/08/25 00:09:09;;;;;;;27.65;24.35;;;;;;;23.36;100.00;101810.91;5065519;28;20012;-66
2022/08/25 00:11:37;;;;;;;31.80;25.27;;;;;;;23.25;100.00;101806.31;5065138;28;20107;-68
2022/08/25 00:14:08;;;;;;;31.27;24.88;;;;;;;23.28;100.00;101807.91;5063876;28;20126;-65
2022/08/25 00:16:33;;;;;;;36.90;29.17;;;;;;;23.18;100.00;101797.81;5065010;28;20024;-66
2022/08/25 00:19:03;;;;;;;29.25;23.80;;;;;;;23.25;100.00;101805.44;5063048;28;20028;-66
2022/08/25 00:21:30;;;;;;;29.23;23.23;;;;;;;23.30;100.00;101803.28;5064229;28;20048;-65
2022/08/25 00:23:55;;;;;;;25.58;22.83;;;;;;;23.26;100.00;101801.78;5065335;28;20111;-65
2022/08/25 00:26:22;;;;;;;30.83;25.00;;;;;;;23.29;100.00;101804.22;5064128;28;20535;-67
2022/08/25 00:28:47;;;;;;;28.95;24.02;;;;;;;23.25;100.00;101792.00;5064919;28;20051;-65
2022/08/25 00:31:15;;;;;;;29.52;23.92;;;;;;;23.19;100.00;101799.53;5064553;28;20645;-67
2022/08/25 00:33:40;;;;;;;27.77;23.50;;;;;;;23.22;100.00;101804.69;5063661;28;20534;-66
2022/08/25 00:36:06;;;;;;;32.47;25.60;;;;;;;23.22;100.00;101802.00;5065076;28;20062;-65
2022/08/25 00:38:31;;;;;;;33.35;25.60;;;;;;;23.19;100.00;101802.22;5063851;28;20047;-65
2022/08/25 00:41:06;;;;;;;30.67;25.20;;;;;;;23.16;100.00;101798.91;5064826;28;20486;-65
2022/08/25 00:43:40;;;;;;;32.25;26.10;;;;;;;23.17;100.00;101790.72;5063821;28;20024;-65
2022/08/25 00:46:10;;;;;;;28.88;24.73;;;;;;;23.13;100.00;101793.75;5046441;28;20502;-65
2022/08/25 00:48:37;;;;;;;35.78;27.52;;;;;;;23.10;100.00;101786.78;5063754;28;20048;-66
2022/08/25 00:51:03;;;;;;;31.00;26.63;;;;;;;23.04;100.00;101790.75;5046210;28;20036;-65
2022/08/25 00:53:29;;;;;;;28.48;25.23;;;;;;;23.02;100.00;101791.84;5064203;28;20089;-66
2022/08/25 00:55:55;;;;;;;31.25;23.65;;;;;;;23.00;100.00;101793.78;5063680;28;20467;-66
2022/08/25 00:58:24;;;;;;;31.80;27.88;;;;;;;22.95;100.00;101788.75;5064800;28;20033;-66
2022/08/25 01:00:51;;;;;;;32.00;27.42;;;;;;;22.95;100.00;101786.91;5064545;28;20025;-67
2022/08/25 01:03:18;;;;;;;38.90;31.30;;;;;;;22.90;100.00;101783.69;5062091;28;20041;-64
2022/08/25 01:05:45;;;;;;;35.00;26.63;;;;;;;22.92;100.00;101792.50;5062923;28;20076;-65
2022/08/25 01:08:10;;;;;;;31.95;27.48;;;;;;;22.91;100.00;101781.88;5062986;28;20037;-66
2022/08/25 01:10:38;;;;;;;35.25;29.17;;;;;;;22.95;100.00;101786.91;5054966;22;20056;-66
2022/08/25 01:13:14;;;;;;;35.47;27.48;;;;;;;22.91;100.00;101777.34;5046774;28;20182;-65
2022/08/25 01:15:40;;;;;;;32.47;25.40;;;;;;;22.95;100.00;101786.91;5045293;28;20116;-65
2022/08/25 01:18:05;;;;;;;36.13;23.75;;;;;;;23.00;100.00;101778.53;5064064;28;20052;-65
2022/08/25 01:20:31;;;;;;;33.97;27.73;;;;;;;23.05;100.00;101772.78;5063014;28;20552;-65
2022/08/25 01:22:58;;;;;;;29.58;26.08;;;;;;;23.05;100.00;101767.41;5079268;28;20028;-65
2022/08/25 01:25:35;;;;;;;40.42;30.92;;;;;;;23.02;100.00;101765.81;5084217;28;20108;-65
2022/08/25 01:28:01;;;;;;;38.75;31.80;;;;;;;23.07;100.00;101768.19;5083465;28;20020;-66
2022/08/25 01:30:26;;;;;;;33.92;28.60;;;;;;;22.97;100.00;101766.16;5071126;28;20086;-66
2022/08/25 01:32:52;;;;;;;30.08;27.08;;;;;;;23.04;100.00;101761.19;5064159;28;20116;-65
2022/08/25 01:35:17;;;;;;;33.10;26.13;;;;;;;23.06;100.00;101766.47;5063278;28;20032;-66
2022/08/25 01:37:43;;;;;;;32.42;25.95;;;;;;;23.06;100.00;101761.94;5070966;28;20055;-65
2022/08/25 01:40:09;;;;;;;30.27;27.00;;;;;;;23.06;100.00;101763.78;5088925;28;20103;-67
2022/08/25 01:42:52;;;;;;;31.38;25.90;;;;;;;23.06;100.00;101761.94;5087243;28;20494;-65
2022/08/25 01:45:17;;;;;;;29.90;26.30;;;;;;;23.03;100.00;101755.94;5066601;28;20502;-65
2022/08/25 01:47:43;;;;;;;35.58;26.75;;;;;;;22.99;100.00;101759.81;5067564;28;20375;-65
2022/08/25 01:50:08;;;;;;;35.28;28.85;;;;;;;22.93;100.00;101753.91;5067442;28;20086;-66
2022/08/25 01:52:50;;;;;;;29.20;25.92;;;;;;;22.86;100.00;101752.66;5068151;28;20033;-66
2022/08/25 01:55:16;;;;;;;34.88;27.83;;;;;;;22.79;100.00;101754.91;5086724;28;20043;-67
2022/08/25 01:57:41;;;;;;;32.28;26.90;;;;;;;22.79;100.00;101749.53;5087575;28;20093;-65
2022/08/25 02:00:11;;;;;;;29.50;25.23;;;;;;;22.77;100.00;101750.63;5087645;28;20054;-67
2022/08/25 02:02:38;;;;;;;29.35;26.20;;;;;;;22.77;100.00;101751.47;5086259;28;20024;-65
2022/08/25 02:05:04;;;;;;;30.77;26.17;;;;;;;22.72;100.00;101748.25;5087496;28;20039;-66
2022/08/25 02:07:30;;;;;;;35.20;27.20;;;;;;;22.76;100.00;101751.59;5087407;28;20043;-67
2022/08/25 02:09:56;;;;;;;33.70;25.10;;;;;;;22.80;99.83;101753.09;5080019;28;20548;-66
2022/08/25 02:12:21;;;;;;;27.48;24.45;;;;;;;22.79;99.59;101754.06;5067701;28;20028;-67
2022/08/25 02:14:47;;;;;;;26.05;23.25;;;;;;;22.74;99.36;101748.16;5066272;28;20462;-66
2022/08/25 02:17:12;;;;;;;27.48;22.80;;;;;;;22.68;99.65;101744.94;5048106;28;20031;-66
2022/08/25 02:19:38;;;;;;;26.08;23.20;;;;;;;22.61;99.67;101738.31;5083586;28;20084;-64
2022/08/25 02:22:03;;;;;;;26.52;23.67;;;;;;;22.61;99.44;101735.63;5087385;28;20508;-66
2022/08/25 02:24:28;;;;;;;25.63;22.92;;;;;;;22.62;99.37;101736.44;5087062;28;20089;-66
2022/08/25 02:26:54;;;;;;;23.83;21.17;;;;;;;22.53;99.17;101735.25;5075059;28;20032;-64
2022/08/25 02:29:19;;;;;;;26.17;23.42;;;;;;;22.54;99.23;101734.28;5066181;28;20123;-67
2022/08/25 02:31:45;;;;;;;23.10;20.42;;;;;;;22.47;99.30;101734.72;5047926;28;20032;-66
2022/08/25 02:34:10;;;;;;;27.20;23.30;;;;;;;22.47;98.87;101734.72;5065755;28;20459;-65
2022/08/25 02:36:37;;;;;;;22.80;20.40;;;;;;;22.52;98.69;101730.84;5066790;28;20082;-67
2022/08/25 02:39:05;;;;;;;25.48;22.00;;;;;;;22.50;98.42;101728.28;5066504;28;20025;-66
2022/08/25 02:41:32;;;;;;;27.13;22.80;;;;;;;22.44;98.48;101726.03;5067108;28;20492;-65
2022/08/25 02:44:01;;;;;;;27.30;22.13;;;;;;;22.43;98.50;101717.09;5081193;28;20102;-64
2022/08/25 02:46:26;;;;;;;27.75;20.48;;;;;;;22.42;98.10;101719.91;5086855;28;20095;-65
2022/08/25 02:48:52;;;;;;;25.08;19.20;;;;;;;22.37;98.49;101717.56;5085406;28;20166;-65
2022/08/25 02:51:19;;;;;;;24.52;20.13;;;;;;;22.32;98.53;101715.19;5087192;28;20378;-66
2022/08/25 02:53:45;;;;;;;22.30;20.00;;;;;;;22.33;98.06;101710.66;5081388;28;20021;-65
2022/08/25 02:56:12;;;;;;;22.02;19.17;;;;;;;22.30;98.11;101711.75;5066667;28;20029;-65
2022/08/25 02:58:39;;;;;;;22.13;19.83;;;;;;;22.27;98.29;101706.59;5065766;28;20027;-65
2022/08/25 03:01:06;;;;;;;23.25;20.70;;;;;;;22.25;98.05;101708.53;5065949;28;20032;-66
2022/08/25 03:03:32;;;;;;;22.52;20.13;;;;;;;22.24;97.90;101701.44;5066333;28;20105;-65
2022/08/25 03:05:58;;;;;;;28.00;19.63;;;;;;;22.29;97.40;101698.44;5065070;28;20023;-65
2022/08/25 03:08:24;;;;;;;22.40;19.00;;;;;;;22.25;97.39;101697.81;5066807;28;20462;-63
2022/08/25 03:10:49;;;;;;;21.23;19.00;;;;;;;22.19;97.57;101693.69;5066203;28;20090;-65
2022/08/25 03:13:15;;;;;;;20.73;18.55;;;;;;;22.18;97.21;101697.38;5065646;28;20056;-65
2022/08/25 03:15:41;;;;;;;20.02;17.55;;;;;;;22.13;97.63;101690.59;5066420;28;20032;-65
2022/08/25 03:18:06;;;;;;;20.15;17.35;;;;;;;22.15;97.37;101688.69;5064191;28;20024;-66
2022/08/25 03:20:34;;;;;;;23.83;20.05;;;;;;;22.17;96.95;101698.34;5066486;28;20027;-65
2022/08/25 03:22:59;;;;;;;19.52;17.42;;;;;;;22.11;96.89;101693.41;5065614;28;20123;-67
2022/08/25 03:28:09;;;;;;;20.27;18.08;;;;;;;22.03;96.67;101688.56;5086771;28;20039;-65
2022/08/25 03:30:35;;;;;;;23.48;18.23;;;;;;;22.02;96.85;101680.63;5077291;28;20021;-65
2022/08/25 03:33:00;;;;;;;18.92;16.13;;;;;;;22.00;96.68;101682.56;5065082;28;20475;-65
2022/08/25 03:35:25;;;;;;;17.35;15.68;;;;;;;21.99;96.51;101672.78;5046485;28;20032;-65
2022/08/25 03:37:55;;;;;;;17.83;15.75;;;;;;;21.95;96.72;101672.16;5065952;28;20024;-65
2022/08/25 03:40:22;;;;;;;22.60;16.08;;;;;;;21.94;96.35;101673.97;5064429;28;20075;-66
2022/08/25 03:42:47;;;;;;;17.25;15.48;;;;;;;21.93;96.23;101669.56;5085860;28;20021;-65
2022/08/25 03:45:15;;;;;;;17.65;15.82;;;;;;;21.90;96.08;101672.47;5058477;28;20236;-66
2022/08/25 03:47:40;;;;;;;17.73;15.73;;;;;;;21.88;96.33;101665.50;5063243;28;20043;-66
2022/08/25 03:50:09;;;;;;;19.90;15.10;;;;;;;21.88;95.92;101663.66;5064480;28;20017;-62
2022/08/25 03:52:35;;;;;;;17.75;14.82;;;;;;;21.88;95.49;101655.59;5063763;28;20486;-63
2022/08/25 03:55:02;;;;;;;18.42;13.52;;;;;;;21.86;95.55;101652.19;5064810;28;20032;-63
2022/08/25 03:57:28;;;;;;;17.73;14.95;;;;;;;21.82;95.40;101648.84;5063495;28;20039;-63
2022/08/25 03:59:54;;;;;;;15.23;12.52;;;;;;;21.73;95.37;101646.75;5064038;28;20028;-63
2022/08/25 04:02:19;;;;;;;14.98;13.30;;;;;;;21.74;95.30;101648.50;5064077;28;20027;-62
2022/08/25 04:04:45;;;;;;;15.63;13.32;;;;;;;21.73;95.13;101644.06;5064643;28;20071;-62
2022/08/25 04:07:10;;;;;;;15.65;14.10;;;;;;;21.74;94.99;101639.59;5074075;28;20398;-62
2022/08/25 04:09:35;;;;;;;16.83;11.73;;;;;;;21.74;94.64;101645.81;5084436;28;20027;-62
2022/08/25 04:12:01;;;;;;;16.55;12.50;;;;;;;21.68;94.67;101647.09;5068479;28;20107;-64
2022/08/25 04:14:26;;;;;;;16.30;11.77;;;;;;;21.71;94.04;101638.81;5064520;28;20028;-65
2022/08/25 04:16:51;;;;;;;13.18;11.07;;;;;;;21.75;93.52;101635.94;5064757;28;20493;-63
2022/08/25 04:19:17;;;;;;;13.10;11.45;;;;;;;21.74;93.31;101629.72;5074050;28;20122;-63
2022/08/25 04:21:42;;;;;;;13.15;11.00;;;;;;;21.74;92.33;101636.91;5074033;28;20676;-64
2022/08/25 04:24:09;;;;;;;12.25;10.80;;;;;;;21.77;92.18;101631.34;5070172;28;20033;-64
2022/08/25 04:26:46;;;;;;;13.25;9.73;;;;;;;21.80;91.65;101628.47;5073496;28;20039;-64
2022/08/25 04:29:13;;;;;;;12.80;8.85;;;;;;;21.86;91.03;101630.72;5066322;28;20029;-65
2022/08/25 04:31:40;;;;;;;12.50;8.30;;;;;;;21.90;91.20;101626.84;5062782;28;20025;-62
2022/08/25 04:34:06;;;;;;;14.40;8.70;;;;;;;22.05;88.17;101632.09;5064137;28;20034;-63
2022/08/25 04:36:32;;;;;;;10.00;9.00;;;;;;;22.07;88.13;101630.19;5063874;28;20387;-64
2022/08/25 04:38:57;;;;;;;10.93;8.15;;;;;;;22.13;87.90;101636.94;5063730;28;20029;-64
2022/08/25 04:41:24;;;;;;;9.82;7.70;;;;;;;22.17;86.99;101633.06;5056754;28;20033;-64
2022/08/25 04:43:50;;;;;;;10.52;7.53;;;;;;;22.24;85.83;101631.66;5043036;28;20048;-64
2022/08/25 04:46:23;;;;;;;11.23;7.65;;;;;;;22.21;85.76;101632.72;5066834;28;20028;-65
2022/08/25 04:48:50;;;;;;;11.30;7.80;;;;;;;22.19;85.52;101625.78;5076916;28;20028;-64
2022/08/25 04:51:20;;;;;;;8.45;6.35;;;;;;;22.19;85.61;101634.66;5063078;28;20040;-65
2022/08/25 04:53:45;;;;;;;11.50;6.88;;;;;;;22.13;85.26;101632.44;5056441;28;20028;-63
2022/08/25 04:56:12;;;;;;;11.73;7.30;;;;;;;22.19;84.76;101631.97;5053377;28;20040;-63
2022/08/25 04:58:39;;;;;;;11.18;7.20;;;;;;;22.19;84.58;101631.13;5061392;28;20107;-64
2022/08/25 05:01:07;;;;;;;11.68;8.13;;;;;;;22.21;84.26;101635.41;5075611;28;20485;-64
2022/08/25 05:03:32;;;;;;;12.98;7.40;;;;;;;22.22;83.64;101633.59;5062776;28;20051;-63
2022/08/25 05:05:57;;;;;;;10.25;7.55;;;;;;;22.22;83.08;101633.59;5063051;28;20036;-63
2022/08/25 05:08:23;;;;;;;9.65;6.30;;;;;;;22.19;83.36;101640.03;5064614;28;20074;-62
2022/08/25 05:10:49;;;;;;;8.48;6.82;;;;;;;22.22;82.79;101637.13;5059903;28;20560;-64
2022/08/25 05:13:15;;;;;;;13.73;6.93;;;;;;;22.23;82.65;101629.94;5054626;28;20115;-64
2022/08/25 05:15:49;;;;;;;9.65;7.25;;;;;;;22.30;81.66;101633.91;5052159;28;20104;-62
2022/08/25 05:18:15;;;;;;;9.02;6.85;;;;;;;22.33;81.97;101630.13;5061843;28;20107;-62
2022/08/25 05:20:41;;;;;;;12.20;7.20;;;;;;;22.43;80.56;101638.41;5063431;28;20037;-65
2022/08/25 05:23:06;;;;;;;9.77;7.07;;;;;;;22.43;79.83;101641.91;5064133;28;20028;-63
2022/08/25 05:25:31;;;;;;;14.45;7.40;;;;;;;22.39;79.84;101639.59;5058954;28;20017;-63
2022/08/25 05:27:57;;;;;;;10.55;6.43;;;;;;;22.39;80.45;101645.81;5070665;28;20043;-63
2022/08/25 05:30:22;;;;;;;13.63;7.97;;;;;;;22.38;79.80;101649.47;5085008;28;20447;-62
2022/08/25 05:32:47;;;;;;;13.18;7.95;;;;;;;22.42;79.64;101650.94;5074873;28;20025;-67
2022/08/25 05:35:14;;;;;;;10.82;7.70;;;;;;;22.53;79.32;101657.38;5063487;28;20040;-63
2022/08/25 05:37:40;;;;;;;10.35;7.18;;;;;;;22.56;79.21;101654.47;5062424;28;20037;-62
2022/08/25 05:40:07;;;;;;;10.77;7.07;;;;;;;22.58;78.86;101647.19;5064214;28;20034;-62
2022/08/25 05:42:32;;;;;;;11.77;7.07;;;;;;;22.54;78.64;101649.22;5061074;28;20020;-61
2022/08/25 05:44:58;;;;;;;10.68;6.65;;;;;;;22.56;78.90;101651.78;5062999;28;20086;-63
2022/08/25 05:47:23;;;;;;;13.63;7.65;;;;;;;22.58;78.58;101655.25;5062081;28;20846;-62
2022/08/25 05:49:48;;;;;;;9.00;6.18;;;;;;;22.65;78.47;101651.16;5053785;28;20040;-66
2022/08/25 05:52:14;;;;;;;13.80;8.07;;;;;;;22.76;77.49;101662.94;5052281;28;20099;-65
2022/08/25 05:54:39;;;;;;;10.57;7.13;;;;;;;22.88;77.41;101658.50;5054932;28;20104;-66
2022/08/25 05:57:06;;;;;;;10.18;7.80;;;;;;;22.99;76.24;101660.41;5054181;28;20043;-65
2022/08/25 05:59:31;;;;;;;10.63;7.93;;;;;;;23.12;75.98;101661.19;5053608;28;20017;-66
2022/08/25 06:04:40;;;;;;;12.55;7.75;;;;;;;23.34;75.35;101652.38;5055065;28;20048;-65
2022/08/25 06:07:06;;;;;;;9.82;6.60;;;;;;;23.42;74.97;101654.47;5045536;28;20016;-64
2022/08/25 06:09:31;;;;;;;12.18;7.68;;;;;;;23.46;74.79;101647.94;5043811;28;20093;-66
2022/08/25 06:11:56;;;;;;;9.18;6.75;;;;;;;23.61;73.82;101645.03;5063525;28;20720;-67
2022/08/25 06:14:23;;;;;;;12.57;6.90;;;;;;;23.57;73.75;101640.88;5068938;28;20402;-65
2022/08/25 06:16:50;;;;;;;8.50;5.97;;;;;;;23.67;73.64;101647.25;5061899;28;20041;-65
2022/08/25 06:19:16;;;;;;;9.23;6.25;;;;;;;23.70;73.00;101644.31;5059385;28;20441;-66
2022/08/25 06:21:41;;;;;;;13.73;6.40;;;;;;;23.65;73.21;101646.50;5052478;28;20085;-64
2022/08/25 06:24:08;;;;;;;13.07;7.60;;;;;;;23.59;72.85;101639.75;5055544;28;20033;-66
2022/08/25 06:26:34;;;;;;;14.85;7.82;;;;;;;23.56;73.01;101636.44;5060586;28;20021;-66
2022/08/25 06:28:59;;;;;;;11.13;7.80;;;;;;;23.53;73.09;101637.53;5055757;28;20436;-64
2022/08/25 06:31:25;;;;;;;9.27;5.75;;;;;;;23.51;73.15;101635.94;5057225;28;20037;-67
2022/08/25 06:33:51;;;;;;;9.77;6.78;;;;;;;23.46;72.93;101637.16;5055571;28;20035;-65
2022/08/25 06:36:17;;;;;;;12.77;7.20;;;;;;;23.54;72.65;101636.56;5056961;28;20021;-63
2022/08/25 06:38:42;;;;;;;16.52;8.32;;;;;;;23.54;72.30;101641.09;5059788;28;20014;-66
2022/08/25 06:41:11;;;;;;;17.20;7.57;;;;;;;23.60;72.26;101641.47;5054713;28;20017;-65
2022/08/25 06:43:38;;;;;;;11.95;7.60;;;;;;;23.66;71.89;101637.44;5056221;28;20082;-65
2022/08/25 06:46:25;;;;;;;17.15;7.03;;;;;;;23.91;71.17;101643.63;5046007;28;20090;-64
2022/08/25 06:48:51;;;;;;;13.82;7.32;;;;;;;23.94;70.97;101645.19;5066358;28;20040;-64
2022/08/25 06:51:18;;;;;;;14.45;7.32;;;;;;;24.04;70.52;101645.31;5065501;28;20036;-64
2022/08/25 06:53:45;;;;;;;17.55;7.38;;;;;;;24.25;70.27;101650.00;5063959;28;20024;-65
2022/08/25 06:56:11;;;;;;;13.60;6.45;;;;;;;24.59;69.42;101653.53;5086011;28;20713;-65
2022/08/25 06:58:36;;;;;;;13.18;7.15;;;;;;;24.82;68.62;101653.50;5085182;28;20028;-63
2022/08/25 07:01:10;;;;;;;12.40;6.75;;;;;;;24.97;68.23;101645.16;5086761;28;20024;-64
2022/08/25 07:03:35;;;;;;;12.10;7.10;;;;;;;25.08;67.50;101650.50;5084364;28;20024;-65
2022/08/25 07:06:01;;;;;;;9.65;6.53;;;;;;;25.18;67.15;101649.72;5076349;28;20075;-65
2022/08/25 07:08:26;;;;;;;14.60;6.47;;;;;;;25.11;67.99;101633.22;5050268;28;20122;-64
2022/08/25 07:10:52;;;;;;;17.70;7.05;;;;;;;25.03;67.02;101635.69;5065348;28;20072;-65
2022/08/25 07:13:17;;;;;;;13.15;6.32;;;;;;;25.01;67.92;101637.69;5068264;28;20081;-64
2022/08/25 07:15:42;;;;;;;16.90;7.43;;;;;;;24.90;67.46;101634.03;5085103;28;20067;-64
2022/08/25 07:18:10;;;;;;;9.68;6.53;;;;;;;25.07;66.92;101639.88;5052667;28;20056;-63
2022/08/25 07:20:39;;;;;;;10.45;6.00;;;;;;;24.96;67.70;101636.19;5056166;28;20100;-64
2022/08/25 07:23:05;;;;;;;16.55;7.00;;;;;;;24.96;67.42;101638.88;5054568;28;20474;-64
2022/08/25 07:25:32;;;;;;;9.48;5.68;;;;;;;25.10;67.19;101645.84;5056669;28;20105;-68
2022/08/25 07:27:57;;;;;;;10.15;5.43;;;;;;;25.22;66.54;101638.56;5055678;28;20033;-65
2022/08/25 07:30:23;;;;;;;11.43;5.63;;;;;;;25.33;65.65;101637.66;5055503;28;20029;-65
2022/08/25 07:32:48;;;;;;;9.85;5.53;;;;;;;25.44;65.57;101633.19;5054296;28;20033;-64
2022/08/25 07:35:17;;;;;;;10.93;5.63;;;;;;;25.52;65.19;101644.16;5057944;28;20032;-64
2022/08/25 07:37:46;;;;;;;11.18;5.82;;;;;;;25.61;65.08;101634.44;5063940;28;20039;-66
2022/08/25 07:40:21;;;;;;;12.02;5.05;;;;;;;25.63;64.67;101635.19;5057878;28;20108;-62
2022/08/25 07:42:50;;;;;;;10.25;5.60;;;;;;;25.80;64.17;101641.84;5057508;28;20044;-66
2022/08/25 07:45:17;;;;;;;11.02;4.60;;;;;;;25.90;63.61;101639.19;5056834;28;20029;-66
2022/08/25 07:47:42;;;;;;;5.53;4.63;;;;;;;26.06;63.85;101635.09;5030891;28;20109;-64
2022/08/25 07:50:10;;;;;;;10.65;4.95;;;;;;;26.12;63.63;101645.38;5054636;28;20469;-64
2022/08/25 07:52:36;;;;;;;11.68;4.97;;;;;;;26.13;62.98;101644.41;5065472;28;20581;-64
2022/08/25 07:55:02;;;;;;;8.98;4.60;;;;;;;26.20;62.42;101648.28;5065000;28;20050;-63
2022/08/25 07:57:28;;;;;;;8.68;4.40;;;;;;;26.34;62.55;101638.13;5059763;28;20032;-63
2022/08/25 07:59:54;;;;;;;10.55;4.00;;;;;;;26.52;61.58;101637.44;5054476;28;20048;-62
2022/08/25 08:02:21;;;;;;;9.90;4.40;;;;;;;26.59;61.19;101634.06;5055159;28;20127;-65
2022/08/25 08:04:48;;;;;;;11.68;4.70;;;;;;;26.62;59.99;101635.63;5048301;28;20120;-64
2022/08/25 08:07:22;;;;;;;10.30;3.63;;;;;;;26.73;59.52;101646.31;5055492;28;20033;-65
2022/08/25 08:09:47;;;;;;;11.45;4.15;;;;;;;26.85;59.51;101647.03;5052925;28;20023;-64
2022/08/25 08:12:12;;;;;;;7.25;3.40;;;;;;;26.96;59.22;101643.34;5057645;28;20247;-65
2022/08/25 08:14:38;;;;;;;9.77;3.85;;;;;;;27.08;58.91;101643.25;5045119;28;20013;-64
2022/08/25 08:17:07;;;;;;;12.50;4.55;;;;;;;27.16;58.02;101638.00;5065018;28;20050;-67
2022/08/25 08:19:33;;;;;;;13.48;4.03;;;;;;;27.33;57.38;101643.69;5064838;28;20017;-64
2022/08/25 08:21:59;;;;;;;13.02;3.90;;;;;;;27.34;57.85;101645.38;5062249;28;20032;-65
2022/08/25 08:24:24;;;;;;;11.98;3.78;;;;;;;27.37;58.05;101653.22;5038655;28;20021;-66
2022/08/25 08:26:50;;;;;;;5.75;3.10;;;;;;;27.55;57.12;101647.91;5051201;28;20025;-63
2022/08/25 08:29:15;;;;;;;10.95;3.83;;;;;;;27.60;57.15;101642.06;5056766;28;20027;-65
2022/08/25 08:31:40;;;;;;;11.82;3.80;;;;;;;27.53;57.43;101639.09;5063526;28;20028;-65
2022/08/25 08:34:06;;;;;;;9.20;3.42;;;;;;;27.80;56.84;101637.47;5057760;28;20467;-64
2022/08/25 08:36:32;;;;;;;6.50;3.85;;;;;;;27.88;56.32;101636.75;5053795;28;20057;-66
2022/08/25 08:38:57;;;;;;;9.43;4.15;;;;;;;28.00;56.15;101637.44;5048150;28;20021;-61
2022/08/25 08:44:12;;;;;;;9.65;3.92;;;;;;;28.26;55.04;101639.44;5059417;28;20043;-62
2022/08/25 08:47:03;;;;;;;8.25;3.75;;;;;;;28.30;55.48;101640.03;5063073;28;20116;-63
2022/08/25 08:49:36;;;;;;;12.35;3.47;;;;;;;28.43;54.86;101639.66;5062741;28;20047;-62
2022/08/25 08:52:02;;;;;;;9.70;3.47;;;;;;;28.54;54.68;101641.31;5046791;28;20082;-63
2022/08/25 08:54:31;;;;;;;4.95;3.17;;;;;;;28.80;53.80;101643.31;5063890;28;20055;-63
2022/08/25 08:57:15;;;;;;;7.90;3.13;;;;;;;29.03;52.63;101645.56;5046109;28;20029;-63
2022/08/25 08:59:50;;;;;;;8.27;2.90;;;;;;;29.34;52.17;101643.28;5061295;28;20024;-62
2022/08/25 09:02:28;;;;;;;9.48;3.47;;;;;;;29.45;51.91;101647.63;5083117;28;20469;-62
2022/08/25 09:04:59;;;;;;;4.80;3.13;;;;;;;29.47;52.24;101645.59;5047957;28;20475;-64
2022/08/25 09:07:30;;;;;;;7.90;3.15;;;;;;;29.59;51.94;101635.34;5062908;28;20035;-63
2022/08/25 09:09:56;;;;;;;12.45;2.85;;;;;;;29.56;51.54;101640.28;5012210;28;20094;-62
2022/08/25 09:12:45;;;;;;;9.43;2.88;;;;;;;29.83;51.05;101628.38;5063888;28;20024;-63
2022/08/25 09:16:53;;;;;;;8.57;2.47;;;;;;;30.02;49.69;101630.03;5045648;28;20064;-62
2022/08/25 09:18:56;;;;;;;9.65;2.85;;;;;;;30.30;47.23;101637.13;5062241;28;20368;-61
2022/08/25 09:21:21;;;;;;;7.22;2.60;;;;;;;30.27;47.67;101635.59;5043216;28;20029;-63
2022/08/25 09:23:55;;;;;;;5.43;2.80;;;;;;;30.54;45.63;101631.91;5056764;28;20050;-61
2022/08/25 09:26:24;;;;;;;5.05;2.72;;;;;;;30.58;45.77;101628.69;5083936;28;20538;-64
2022/08/25 09:28:54;;;;;;;3.90;2.60;;;;;;;30.62;46.24;101623.78;5082988;28;20027;-63
2022/08/25 09:31:25;;;;;;;6.18;2.60;;;;;;;30.86;45.30;101631.19;5065897;28;20595;-62
2022/08/25 09:33:56;;;;;;;10.20;2.80;;;;;;;30.89;45.55;101632.69;5076508;28;20500;-62
2022/08/25 09:36:22;;;;;;;5.43;2.10;;;;;;;30.97;45.59;101627.25;5063399;28;20039;-64
2022/08/25 09:38:47;;;;;;;5.80;2.42;;;;;;;30.85;46.30;101634.06;5065402;28;20386;-62
2022/08/25 09:41:16;;;;;;;8.55;2.30;;;;;;;31.02;45.34;101629.47;5083789;28;20035;-63
2022/08/25 09:43:42;;;;;;;;;;;;;;;31.17;44.55;101624.19;5073024;28;20025;-61
2022/08/25 09:46:09;;;;;;;12.55;3.05;;;;;;;31.27;44.76;101632.19;5083996;28;19921;-62
2022/08/25 09:48:53;;;;;;;7.78;2.28;;;;;;;31.32;43.31;101620.78;5082039;28;20086;-63
2022/08/25 09:51:27;;;;;;;4.88;2.30;;;;;;;31.19;43.07;101616.72;5043485;28;20037;-61
2022/08/25 09:53:54;;;;;;;5.93;2.50;;;;;;;31.17;43.50;101621.47;5043682;28;20060;-61
2022/08/25 09:56:22;;;;;;;7.10;1.93;;;;;;;31.20;42.85;101621.13;5063996;28;20139;-63
2022/08/25 09:58:48;;;;;;;5.03;2.30;;;;;;;31.00;42.84;101620.66;5046374;28;20109;-62
2022/08/25 10:01:17;;;;;;;3.55;2.25;;;;;;;31.09;43.18;101616.88;5067737;28;20067;-62
2022/08/25 10:03:53;;;;;;;3.90;2.25;;;;;;;31.13;43.18;101625.56;5085785;28;20107;-63
2022/08/25 10:06:19;;;;;;;6.47;2.42;;;;;;;31.18;41.87;101614.19;5066586;28;20427;-62
2022/08/25 10:08:44;;;;;;;5.75;2.28;;;;;;;31.11;41.88;101605.81;5066382;28;20027;-61
2022/08/25 10:11:13;;;;;;;6.47;2.20;;;;;;;31.08;42.01;101609.75;5082841;28;20040;-63
2022/08/25 10:13:47;;;;;;;4.25;2.45;;;;;;;31.01;42.88;101606.00;5068730;28;20343;-63
2022/08/25 10:16:25;;;;;;;9.27;2.33;;;;;;;30.95;43.20;101607.53;5070264;28;20047;-62
2022/08/25 10:19:22;;;;;;;7.57;2.30;;;;;;;30.96;42.86;101603.78;5066092;28;20016;-63
2022/08/25 10:22:22;;;;;;;14.38;2.72;;;;;;;30.87;43.62;101604.81;5086160;28;20028;-62
2022/08/25 10:24:48;;;;;;;7.35;2.30;;;;;;;30.68;45.18;101605.94;5041472;28;20093;-62
2022/08/25 10:27:22;;;;;;;6.95;2.20;;;;;;;30.58;45.84;101603.41;5082974;28;20040;-62
2022/08/25 10:29:52;;;;;;;5.18;2.60;;;;;;;30.55;45.95;101603.72;5067813;28;20024;-62
2022/08/25 10:32:31;;;;;;;6.38;2.33;;;;;;;30.52;45.41;101603.03;5051421;28;20398;-62
2022/08/25 10:35:09;;;;;;;5.85;2.70;;;;;;;30.62;45.64;101591.16;5048005;28;20027;-64
2022/08/25 10:37:40;;;;;;;;;;;;;;;30.85;45.45;101580.50;5048685;28;20063;-61
2022/08/25 10:40:18;;;;;;;6.13;2.72;;;;;;;30.81;44.58;101584.56;5066137;28;19917;-63
2022/08/25 10:43:05;;;;;;;9.55;2.75;;;;;;;31.13;43.71;101579.31;5047657;28;20446;-63
2022/08/25 10:45:43;;;;;;;7.47;2.05;;;;;;;31.41;43.93;101581.69;5073143;28;20489;-63
2022/08/25 10:48:12;;;;;;;6.80;2.27;;;;;;;31.55;41.62;101574.69;5085844;28;20111;-62
2022/08/25 10:51:15;;;;;;;6.03;2.05;;;;;;;31.60;42.47;101571.44;5060559;28;20024;-63
2022/08/25 10:54:00;;;;;;;3.78;2.10;;;;;;;31.75;42.50;101572.38;5065651;28;20034;-63
2022/08/25 10:56:28;;;;;;;12.63;2.78;;;;;;;31.91;42.50;101567.91;5047294;28;20029;-63
2022/08/25 10:59:05;;;;;;;5.35;2.63;;;;;;;31.85;44.26;101563.16;5048171;28;20016;-62
2022/08/25 11:01:56;;;;;;;8.55;2.60;;;;;;;32.12;41.32;101563.75;5077249;28;20032;-63
2022/08/25 11:04:35;;;;;;;6.60;2.50;;;;;;;32.50;40.72;101566.59;5086734;28;20030;-62
2022/08/25 11:07:09;;;;;;;5.30;2.40;;;;;;;32.62;40.46;101564.31;5070300;28;20063;-62
2022/08/25 11:09:39;;;;;;;8.13;2.40;;;;;;;32.70;41.41;101562.53;5047291;28;20022;-62
2022/08/25 11:12:08;;;;;;;10.95;2.50;;;;;;;33.03;39.70;101565.84;5061895;28;20028;-62
2022/08/25 11:14:35;;;;;;;8.43;2.35;;;;;;;32.98;39.97;101560.09;5067330;28;20024;-61
2022/08/25 11:17:01;;;;;;;11.13;2.97;;;;;;;33.36;36.96;101556.50;5071221;28;20115;-65
2022/08/25 11:19:30;;;;;;;6.73;2.60;;;;;;;33.43;37.22;101564.78;5065673;28;20138;-62
2022/08/25 11:22:16;;;;;;;7.47;2.10;;;;;;;33.63;34.57;101554.19;5075844;28;20311;-63
2022/08/25 11:24:57;;;;;;;6.30;2.67;;;;;;;33.57;36.02;101544.00;5067512;28;20026;-62
2022/08/25 11:27:44;;;;;;;3.55;2.05;;;;;;;34.06;34.86;101551.75;5069517;28;20032;-63
2022/08/25 11:30:14;;;;;;;6.28;1.95;;;;;;;33.78;34.18;101543.25;5046303;28;20029;-63